FMCZ

Dzaoudzi Pamandzi International Airport

Dzaoudzi, Mayotte
METAR FMCZ 221800Z AUTO 22009KT 9999 FEW022/// 28/25 Q1010 NOSIG
Observed Flight Rules
Apr-22 @ 18:00 UTC (21 minutes ago) Visual Flight Rules
Wind Visibility Clouds
220° at 9 knots 10,000+ meters
  • Few at 2,200' AGL
Temperatures Readings
Current 28°C / 82°F
Dewpoint 25°C / 77°F
Humidity 84%
Altimeter 29.82" Hg
Pressure 1010 hPa
Elevation 7
METAR FMCZ 221800Z AUTO 22009KT 9999 FEW022/// 28/25 Q1010 NOSIG
Observed Flight Rules
Apr-22 @ 18:00 UTC
(21 minutes ago)
VFR
Wind Visibility
220° at 9 knots 10,000+ meters
Clouds
  • Few at 2,200' AGL
Temperature Dewpoint
28°C / 82°F 25°C / 77°F
Humidity Altimeter Pressure
84% 29.82" Hg 1010 hPa